地図

経路データ

SID SEASON NUMBER BASIN SUBBASIN NAME ISO_TIME NATURE LAT LON WMO_WIND WMO_PRES WMO_AGENCY TRACK_TYPE DIST2LAND LANDFALL IFLAG USA_AGENCY USA_ATCF_ID USA_LAT USA_LON USA_RECORD USA_STATUS USA_WIND USA_PRES USA_SSHS USA_R34_NE USA_R34_SE USA_R34_SW USA_R34_NW USA_R50_NE USA_R50_SE USA_R50_SW USA_R50_NW USA_R64_NE USA_R64_SE USA_R64_SW USA_R64_NW USA_POCI USA_ROCI USA_RMW USA_EYE TOKYO_LAT TOKYO_LON TOKYO_GRADE TOKYO_WIND TOKYO_PRES TOKYO_R50_DIR TOKYO_R50_LONG TOKYO_R50_SHORT TOKYO_R30_DIR TOKYO_R30_LONG TOKYO_R30_SHORT TOKYO_LAND CMA_LAT CMA_LON CMA_CAT CMA_WIND CMA_PRES HKO_LAT HKO_LON HKO_CAT HKO_WIND HKO_PRES NEWDELHI_LAT NEWDELHI_LON NEWDELHI_GRADE NEWDELHI_WIND NEWDELHI_PRES NEWDELHI_CI NEWDELHI_DP NEWDELHI_POCI REUNION_LAT REUNION_LON REUNION_TYPE REUNION_WIND REUNION_PRES REUNION_TNUM REUNION_CI REUNION_RMW REUNION_R34_NE REUNION_R34_SE REUNION_R34_SW REUNION_R34_NW REUNION_R50_NE REUNION_R50_SE REUNION_R50_SW REUNION_R50_NW REUNION_R64_NE REUNION_R64_SE REUNION_R64_SW REUNION_R64_NW BOM_LAT BOM_LON BOM_TYPE BOM_WIND BOM_PRES BOM_TNUM BOM_CI BOM_RMW BOM_R34_NE BOM_R34_SE BOM_R34_SW BOM_R34_NW BOM_R50_NE BOM_R50_SE BOM_R50_SW BOM_R50_NW BOM_R64_NE BOM_R64_SE BOM_R64_SW BOM_R64_NW BOM_ROCI BOM_POCI BOM_EYE BOM_POS_METHOD BOM_PRES_METHOD NADI_LAT NADI_LON NADI_CAT NADI_WIND NADI_PRES WELLINGTON_LAT WELLINGTON_LON WELLINGTON_WIND WELLINGTON_PRES DS824_LAT DS824_LON DS824_STAGE DS824_WIND DS824_PRES TD9636_LAT TD9636_LON TD9636_STAGE TD9636_WIND TD9636_PRES TD9635_LAT TD9635_LON TD9635_WIND TD9635_PRES TD9635_ROCI NEUMANN_LAT NEUMANN_LON NEUMANN_CLASS NEUMANN_WIND NEUMANN_PRES MLC_LAT MLC_LON MLC_CLASS MLC_WIND MLC_PRES USA_GUST BOM_GUST BOM_GUST_PER REUNION_GUST REUNION_GUST_PER USA_SEAHGT USA_SEARAD_NE USA_SEARAD_SE USA_SEARAD_SW USA_SEARAD_NW STORM_SPEED STORM_DIR
1889231N17291 1889 15 NA CS NOT_NAMED 1889-08-19 06:00:00 TS 16.8000 -69.2000 35 hurdat_atl main 162 144 O_____________ hurdat_atl AL031889 16.8000 -69.2000 TS 35 0 6 321
1889231N17291 1889 15 NA CS NOT_NAMED 1889-08-19 09:00:00 TS 17.0501 -69.4123 main 138 119 P_____________ AL031889 17.0501 -69.4123 TS 37 0 6 323
1889231N17291 1889 15 NA CS NOT_NAMED 1889-08-19 12:00:00 TS 17.3000 -69.6000 40 hurdat_atl main 119 94 O_____________ hurdat_atl AL031889 17.3000 -69.6000 TS 40 0 6 327
1889231N17291 1889 15 NA CS NOT_NAMED 1889-08-19 15:00:00 TS 17.5499 -69.7501 main 89 54 P_____________ AL031889 17.5499 -69.7501 TS 45 0 6 330
1889231N17291 1889 15 NA CS NOT_NAMED 1889-08-19 18:00:00 TS 17.8000 -69.9000 50 hurdat_atl main 54 24 O_____________ hurdat_atl AL031889 17.8000 -69.9000 TS 50 0 6 327
1889231N17291 1889 15 NA CS NOT_NAMED 1889-08-19 21:00:00 TS 18.0575 -70.1000 main 15 0 P_____________ AL031889 18.0575 -70.1000 TS 50 0 6 323
1889231N17291 1889 15 NA NA NOT_NAMED 1889-08-20 00:00:00 TS 18.3000 -70.3000 50 hurdat_atl main 0 0 O_____________ hurdat_atl AL031889 18.3000 -70.3000 TS 50 0 6 322
1889231N17291 1889 15 NA NA NOT_NAMED 1889-08-20 03:00:00 TS 18.5000 -70.4576 main 0 0 P_____________ AL031889 18.5000 -70.4576 TS 42 0 5 325
1889231N17291 1889 15 NA NA NOT_NAMED 1889-08-20 06:00:00 TS 18.7000 -70.6000 35 hurdat_atl main 0 0 O_____________ hurdat_atl AL031889 18.7000 -70.6000 TS 35 0 5 328
1889231N17291 1889 15 NA NA NOT_NAMED 1889-08-20 09:00:00 TS 18.9500 -70.7500 main 0 0 P_____________ AL031889 18.9500 -70.7500 TS 32 -1 6 330
1889231N17291 1889 15 NA NA NOT_NAMED 1889-08-20 12:00:00 TS 19.2000 -70.9000 30 hurdat_atl main 0 0 O_____________ hurdat_atl AL031889 19.2000 -70.9000 TD 30 -1 5 328
1889231N17291 1889 15 NA NA NOT_NAMED 1889-08-20 15:00:00 TS 19.4075 -71.0501 main 0 0 P_____________ AL031889 19.4075 -71.0501 TD 30 -1 5 325
1889231N17291 1889 15 NA NA NOT_NAMED 1889-08-20 18:00:00 TS 19.6000 -71.2000 30 hurdat_atl main 0 0 O_____________ hurdat_atl AL031889 19.6000 -71.2000 TD 30 -1 5 324
1889231N17291 1889 15 NA NA NOT_NAMED 1889-08-20 21:00:00 TS 19.8000 -71.3500 main 0 0 P_____________ AL031889 19.8000 -71.3500 TD 32 -1 5 325
1889231N17291 1889 15 NA NA NOT_NAMED 1889-08-21 00:00:00 TS 20.0000 -71.5000 35 hurdat_atl main 22 22 O_____________ hurdat_atl AL031889 20.0000 -71.5000 TS 35 0 5 325
1889231N17291 1889 15 NA NA NOT_NAMED 1889-08-21 03:00:00 TS 20.2000 -71.6500 main 44 44 P_____________ AL031889 20.2000 -71.6500 TS 42 0 5 325
1889231N17291 1889 15 NA NA NOT_NAMED 1889-08-21 06:00:00 TS 20.4000 -71.8000 50 hurdat_atl main 67 67 O_____________ hurdat_atl AL031889 20.4000 -71.8000 TS 50 0 5 325
1889231N17291 1889 15 NA NA NOT_NAMED 1889-08-21 09:00:00 TS 20.5925 -71.9426 main 90 90 P_____________ AL031889 20.5925 -71.9426 TS 52 0 5 325
1889231N17291 1889 15 NA NA NOT_NAMED 1889-08-21 12:00:00 TS 20.8000 -72.1000 55 hurdat_atl main 103 75 O_____________ hurdat_atl AL031889 20.8000 -72.1000 TS 55 0 6 324
1889231N17291 1889 15 NA NA NOT_NAMED 1889-08-21 15:00:00 TS 21.0425 -72.3000 main 75 51 P_____________ AL031889 21.0425 -72.3000 TS 57 0 6 323
1889231N17291 1889 15 NA NA NOT_NAMED 1889-08-21 18:00:00 TS 21.3000 -72.5000 60 hurdat_atl main 52 47 O_____________ hurdat_atl AL031889 21.3000 -72.5000 TS 60 0 6 327
1889231N17291 1889 15 NA NA NOT_NAMED 1889-08-21 21:00:00 TS 21.5499 -72.6501 main 45 45 P_____________ AL031889 21.5499 -72.6501 TS 60 0 6 331
1889231N17291 1889 15 NA NA NOT_NAMED 1889-08-22 00:00:00 TS 21.8000 -72.8000 60 hurdat_atl main 70 70 O_____________ hurdat_atl AL031889 21.8000 -72.8000 TS 60 0 6 327
1889231N17291 1889 15 NA NA NOT_NAMED 1889-08-22 03:00:00 TS 22.0350 -72.9926 main 89 89 P_____________ AL031889 22.0350 -72.9926 TS 60 0 6 323
1889231N17291 1889 15 NA NA NOT_NAMED 1889-08-22 06:00:00 TS 22.3000 -73.2000 60 hurdat_atl main 122 122 O_____________ hurdat_atl AL031889 22.3000 -73.2000 TS 60 0 7 328
1889231N17291 1889 15 NA NA NOT_NAMED 1889-08-22 09:00:00 TS 22.6350 -73.4000 main 157 157 P_____________ AL031889 22.6350 -73.4000 TS 60 0 8 332
1889231N17291 1889 15 NA NA NOT_NAMED 1889-08-22 12:00:00 TS 23.0000 -73.6000 60 hurdat_atl main 205 205 O_____________ hurdat_atl AL031889 23.0000 -73.6000 TS 60 0 8 332
1889231N17291 1889 15 NA NA NOT_NAMED 1889-08-22 15:00:00 TS 23.3425 -73.8001 main 242 242 P_____________ AL031889 23.3425 -73.8001 TS 60 0 8 332
1889231N17291 1889 15 NA NA NOT_NAMED 1889-08-22 18:00:00 TS 23.7000 -74.0000 60 hurdat_atl main 291 291 O_____________ hurdat_atl AL031889 23.7000 -74.0000 TS 60 0 8 334
1889231N17291 1889 15 NA NA NOT_NAMED 1889-08-22 21:00:00 TS 24.0925 -74.2001 main 339 333 P_____________ AL031889 24.0925 -74.2001 TS 60 0 9 335
1889231N17291 1889 15 NA NA NOT_NAMED 1889-08-23 00:00:00 TS 24.5000 -74.4000 60 hurdat_atl main 333 314 O_____________ hurdat_atl AL031889 24.5000 -74.4000 TS 60 0 9 335
1889231N17291 1889 15 NA NA NOT_NAMED 1889-08-23 03:00:00 TS 24.8925 -74.6002 main 316 302 P_____________ AL031889 24.8925 -74.6002 TS 60 0 9 336
1889231N17291 1889 15 NA NA NOT_NAMED 1889-08-23 06:00:00 TS 25.3000 -74.8000 60 hurdat_atl main 305 298 O_____________ hurdat_atl AL031889 25.3000 -74.8000 TS 60 0 9 336
1889231N17291 1889 15 NA NA NOT_NAMED 1889-08-23 09:00:00 TS 25.7425 -75.0075 main 302 297 P_____________ AL031889 25.7425 -75.0075 TS 60 0 10 338
1889231N17291 1889 15 NA NA NOT_NAMED 1889-08-23 12:00:00 TS 26.2000 -75.2000 60 hurdat_atl main 306 306 O_____________ hurdat_atl AL031889 26.2000 -75.2000 TS 60 0 10 341
1889231N17291 1889 15 NA NA NOT_NAMED 1889-08-23 15:00:00 TS 26.6500 -75.3651 main 309 309 P_____________ AL031889 26.6500 -75.3651 TS 60 0 9 343
1889231N17291 1889 15 NA NA NOT_NAMED 1889-08-23 18:00:00 TS 27.1000 -75.5000 60 hurdat_atl main 334 334 O_____________ hurdat_atl AL031889 27.1000 -75.5000 TS 60 0 9 346
1889231N17291 1889 15 NA NA NOT_NAMED 1889-08-23 21:00:00 TS 27.5500 -75.6225 main 359 359 P_____________ AL031889 27.5500 -75.6225 TS 60 0 9 349
1889231N17291 1889 15 NA NA NOT_NAMED 1889-08-24 00:00:00 TS 28.0000 -75.7000 60 hurdat_atl main 396 396 O_____________ hurdat_atl AL031889 28.0000 -75.7000 TS 60 0 9 354
1889231N17291 1889 15 NA NA NOT_NAMED 1889-08-24 03:00:00 TS 28.4500 -75.7300 main 433 433 P_____________ AL031889 28.4500 -75.7300 TS 60 0 9 0
1889231N17291 1889 15 NA NA NOT_NAMED 1889-08-24 06:00:00 TS 28.9000 -75.7000 60 hurdat_atl main 469 469 O_____________ hurdat_atl AL031889 28.9000 -75.7000 TS 60 0 9 5
1889231N17291 1889 15 NA NA NOT_NAMED 1889-08-24 09:00:00 TS 29.3500 -75.6299 main 484 484 P_____________ AL031889 29.3500 -75.6299 TS 60 0 9 11
1889231N17291 1889 15 NA NA NOT_NAMED 1889-08-24 12:00:00 TS 29.8000 -75.5000 60 hurdat_atl main 506 479 O_____________ hurdat_atl AL031889 29.8000 -75.5000 TS 60 0 9 16
1889231N17291 1889 15 NA NA NOT_NAMED 1889-08-24 15:00:00 TS 30.2574 -75.3299 main 475 448 P_____________ AL031889 30.2574 -75.3299 TS 60 0 10 21
1889231N17291 1889 15 NA NA NOT_NAMED 1889-08-24 18:00:00 TS 30.7000 -75.1000 60 hurdat_atl main 448 431 O_____________ hurdat_atl AL031889 30.7000 -75.1000 TS 60 0 10 27
1889231N17291 1889 15 NA NA NOT_NAMED 1889-08-24 21:00:00 TS 31.1150 -74.8150 main 431 402 P_____________ AL031889 31.1150 -74.8150 TS 60 0 10 33
1889231N17291 1889 15 NA NA NOT_NAMED 1889-08-25 00:00:00 TS 31.5000 -74.5000 60 hurdat_atl main 402 382 O_____________ hurdat_atl AL031889 31.5000 -74.5000 TS 60 0 9 36
1889231N17291 1889 15 NA NA NOT_NAMED 1889-08-25 03:00:00 TS 31.8575 -74.1923 main 378 368 P_____________ AL031889 31.8575 -74.1923 TS 60 0 9 36
1889231N17291 1889 15 NA NA NOT_NAMED 1889-08-25 06:00:00 TS 32.2000 -73.9000 60 hurdat_atl main 368 356 O_____________ hurdat_atl AL031889 32.2000 -73.9000 TS 60 0 8 34
1889231N17291 1889 15 NA NA NOT_NAMED 1889-08-25 09:00:00 TS 32.5574 -73.6349 main 355 347 P_____________ AL031889 32.5574 -73.6349 TS 60 0 8 31
1889231N17291 1889 15 NA NA NOT_NAMED 1889-08-25 12:00:00 TS 32.9000 -73.4000 60 hurdat_atl main 347 340 O_____________ hurdat_atl AL031889 32.9000 -73.4000 TS 60 0 8 30
1889231N17291 1889 15 NA NA NOT_NAMED 1889-08-25 15:00:00 TS 33.2074 -73.1922 main 342 336 P_____________ AL031889 33.2074 -73.1922 TS 60 0 7 29
1889231N17291 1889 15 NA NA NOT_NAMED 1889-08-25 18:00:00 TS 33.5000 -73.0000 60 hurdat_atl main 340 331 O_____________ hurdat_atl AL031889 33.5000 -73.0000 TS 60 0 7 29
1889231N17291 1889 15 NA NA NOT_NAMED 1889-08-25 21:00:00 TS 33.8150 -72.7925 main 331 324 P_____________ AL031889 33.8150 -72.7925 TS 60 0 7 29
1889231N17291 1889 15 NA NA NOT_NAMED 1889-08-26 00:00:00 TS 34.1000 -72.6000 60 hurdat_atl main 324 318 O_____________ hurdat_atl AL031889 34.1000 -72.6000 TS 60 0 6 31
1889231N17291 1889 15 NA NA NOT_NAMED 1889-08-26 03:00:00 TS 34.3074 -72.4422 main 327 321 P_____________ AL031889 34.3074 -72.4422 TS 60 0 5 32
1889231N17291 1889 15 NA NA NOT_NAMED 1889-08-26 06:00:00 TS 34.5000 -72.3000 60 hurdat_atl main 324 319 O_____________ hurdat_atl AL031889 34.5000 -72.3000 TS 60 0 5 29
1889231N17291 1889 15 NA NA NOT_NAMED 1889-08-26 09:00:00 TS 34.7500 -72.1426 main 327 323 P_____________ AL031889 34.7500 -72.1426 TS 62 0 6 26
1889231N17291 1889 15 NA NA NOT_NAMED 1889-08-26 12:00:00 TS 35.0000 -72.0000 65 hurdat_atl main 328 325 O_____________ hurdat_atl AL031889 35.0000 -72.0000 HU 65 1 5 25
1889231N17291 1889 15 NA NA NOT_NAMED 1889-08-26 15:00:00 TS 35.2000 -71.8849 main 331 329 P_____________ AL031889 35.2000 -71.8849 HU 65 1 4 22
1889231N17291 1889 15 NA NA NOT_NAMED 1889-08-26 18:00:00 TS 35.4000 -71.8000 65 hurdat_atl main 336 334 O_____________ hurdat_atl AL031889 35.4000 -71.8000 HU 65 1 5 15
1889231N17291 1889 15 NA NA NOT_NAMED 1889-08-26 21:00:00 TS 35.6575 -71.7425 main 342 341 P_____________ AL031889 35.6575 -71.7425 HU 67 1 5 9
1889231N17291 1889 15 NA NA NOT_NAMED 1889-08-27 00:00:00 TS 35.9000 -71.7000 70 hurdat_atl main 341 341 O_____________ hurdat_atl AL031889 35.9000 -71.7000 HU 70 1 4 11
1889231N17291 1889 15 NA NA NOT_NAMED 1889-08-27 03:00:00 TS 36.0575 -71.6499 main 351 351 P_____________ AL031889 36.0575 -71.6499 HU 70 1 3 14
1889231N17291 1889 15 NA NA NOT_NAMED 1889-08-27 06:00:00 TS 36.2000 -71.6000 70 hurdat_atl main 352 352 O_____________ hurdat_atl AL031889 36.2000 -71.6000 HU 70 1 3 16
1889231N17291 1889 15 NA NA NOT_NAMED 1889-08-27 09:00:00 TS 36.3850 -71.5425 main 364 364 P_____________ AL031889 36.3850 -71.5425 HU 70 1 4 11
1889231N17291 1889 15 NA NA NOT_NAMED 1889-08-27 12:00:00 TS 36.6000 -71.5000 70 hurdat_atl main 368 357 O_____________ hurdat_atl AL031889 36.6000 -71.5000 HU 70 1 5 5
1889231N17291 1889 15 NA NA NOT_NAMED 1889-08-27 15:00:00 TS 36.8500 -71.4924 main 357 342 P_____________ AL031889 36.8500 -71.4924 HU 70 1 5 2
1889231N17291 1889 15 NA NA NOT_NAMED 1889-08-27 18:00:00 TS 37.1000 -71.5000 70 hurdat_atl main 342 334 O_____________ hurdat_atl AL031889 37.1000 -71.5000 HU 70 1 5 0
1889231N17291 1889 15 NA NA NOT_NAMED 1889-08-27 21:00:00 TS 37.3000 -71.5000 main 334 327 P_____________ AL031889 37.3000 -71.5000 HU 67 1 4 0
1889231N17291 1889 15 NA NA NOT_NAMED 1889-08-28 00:00:00 TS 37.5000 -71.5000 65 hurdat_atl main 327 314 O_____________ hurdat_atl AL031889 37.5000 -71.5000 HU 65 1 4 0
1889231N17291 1889 15 NA NA NOT_NAMED 1889-08-28 03:00:00 TS 37.7425 -71.5000 main 314 294 P_____________ AL031889 37.7425 -71.5000 HU 62 0 5 2
1889231N17291 1889 15 NA NA NOT_NAMED 1889-08-28 06:00:00 TS 38.0000 -71.5000 60 hurdat_atl main 294 281 O_____________ hurdat_atl AL031889 38.0000 -71.5000 TS 60 0 5 3
1889231N17291 1889 15 NA NA NOT_NAMED 1889-08-28 09:00:00 TS 38.2500 -71.5000 main 276 265 P_____________ AL031889 38.2500 -71.5000 TS 55 0 5 2
1889231N17291 1889 15 NA NA NOT_NAMED 1889-08-28 12:00:00 TS 38.5000 -71.5000 50 hurdat_atl main 265 251 O_____________ hurdat_atl AL031889 38.5000 -71.5000 TS 50 0 5 2
1889231N17291 1889 15 NA NA NOT_NAMED 1889-08-28 15:00:00 TS 38.7500 -71.5000 main 241 221 P_____________ AL031889 38.7500 -71.5000 TS 45 0 5 2
1889231N17291 1889 15 NA NA NOT_NAMED 1889-08-28 18:00:00 TS 39.0000 -71.5000 40 hurdat_atl main 221 O_____________ hurdat_atl AL031889 39.0000 -71.5000 TS 40 0 5 2

IBTrACS Databaseについて

本データベースは、米国NOAAが公開する1842年以降の世界の熱帯低気圧のベストトラックデータアーカイブInternational Best Track Archive for Climate Stewardship (IBTrACS)を、ウェブで閲覧しやすい形式に変換したものです。

最終更新日:2021-11-26